Sierra Blanca Regional Airport
KSRR : rendu visible

Aérodrome :











RETROUVEZ-NOUS SUR...

 
LOGIN :

S'inscrire | Disclaimer

   EN    FR    IT 

 









Légende :    VFR   VFR Marginal   IFR   IFR Intensif   IFR Très Intensif
Visi : 
Plafond : 
>= 8 km
>= 3000ft
5 à 8 km
1000 à 3000 ft
1500m à 5 km
500 à 1000 ft
800 à 1500m
200 à 500 ft
< 800m
< 200 ft
Symboles :   Orages  Brouillard  Fortes neiges  Fortes précipitations  Vent > 20 kt






- Altitude de l'aérodrome : 6814 ft


KSRR - Sierra Blanca Regional

DERNIER METAR :
  • 021635Z AUTO 21015G26KT 10SM CLR 15/M06 A3001 RMK AO2

METARs EXPIRÉS :
  • 021615Z AUTO 22016G22KT 10SM CLR 15/M06 A3000 RMK AO2
  • 021555Z AUTO 22016G20KT 10SM CLR 15/M06 A3000 RMK AO2
  • 021535Z AUTO 23012KT 10SM CLR 15/M07 A3000 RMK AO2
  • 021515Z AUTO 23013G19KT 10SM CLR 14/M07 A2999 RMK AO2
  • 021455Z AUTO 22015G19KT 10SM CLR 13/M06 A2999 RMK AO2
  • 021435Z AUTO 24014G19KT 10SM CLR 13/M07 A2999 RMK AO2
  • 021415Z AUTO 22016G21KT 10SM CLR 12/M07 A2998 RMK AO2
  • 021355Z AUTO 23017G22KT 10SM CLR 11/M06 A2997 RMK AO2

TAF N/A



MET'MAP, la Météo Aéronautique d'un coup d'oeil ! - Copyright ORBIFLY Décembre 2007 - Disclaimer

ORBIFLY MET'MAP TEAM :

Programmation & Développement : Alexandra Zaïnal
Sur une idée originale de : Baudouin d'Aumeries
Assistance à la programmation : Marc-Olivier Méhu
Soutien technique & logistique : Manuel Goepfert

Contact : metmap@orbifly.com




SOURCES & CREDITS :

   NOAA       Earth
Advisory